TUN weather

Tunis Carthage International Airport
Tunis, Tunis Governorate, Tunisia

Public forecast

Using degrees Celsius for public forecast. Weather courtesy of forecast.io.

METAR (pilot weather report)

Retrieved 2018/01/23 21:00 UTC (29 minutes ago):

DTTA 232100Z 27005KT 250V330 9999 BKN026TCU SCT040 14/10 Q1026 NOSIG

TAF (pilot weather forecast)

Retrieved 2018/01/23 18:15 UTC (3 hours ago):

TAF DTTA 231715Z 2318/2418 31014KT 9999 BKN026TCU PROB40 TEMPO 2319/2324 29015G25KT BECMG 2412/2414 VRB04KT